Terminal Aerodrome Forecast
Issued by NWS

Home | Current Version | Previous Version | Graphics & Text | Print | Product List | Glossary On
Versions: 1 2 3 4 5 6 7 8 9 10 11 12 13 14 15 16 17 18
811
FTUS42 KMHX 222337
TAFOAJ
TAF
KOAJ 222337Z 2300/2324 20010G17KT P6SM VCTS SCT030 BKN060CB
     FM230800 04007KT P6SM OVC012
     FM231000 04008KT P6SM VCSH OVC008
     FM231800 07009KT P6SM VCSH BKN020
      AMD LTD TO CLD VIS AND WIND=

USA.gov is the U.S. government's official web portal to all federal, state and local government web resources and services.